sensor_id;sensor_type;location;lat;lon;timestamp;P1;durP1;ratioP1;P2;durP2;ratioP2
14066;SDS011;7108;42.684;23.350;2023-06-14T00:02:10;267.70;;;117.67;;
14066;SDS011;7108;42.684;23.350;2023-06-14T00:04:36;272.73;;;114.83;;
14066;SDS011;7108;42.684;23.350;2023-06-14T00:07:03;246.67;;;110.23;;
14066;SDS011;7108;42.684;23.350;2023-06-14T00:09:28;255.00;;;110.07;;
14066;SDS011;7108;42.684;23.350;2023-06-14T00:11:54;253.00;;;110.10;;
14066;SDS011;7108;42.684;23.350;2023-06-14T00:14:19;262.40;;;118.20;;
14066;SDS011;7108;42.684;23.350;2023-06-14T00:16:45;271.40;;;114.30;;
14066;SDS011;7108;42.684;23.350;2023-06-14T00:19:10;257.83;;;111.87;;
14066;SDS011;7108;42.684;23.350;2023-06-14T00:21:36;271.90;;;120.67;;
14066;SDS011;7108;42.684;23.350;2023-06-14T00:24:03;260.07;;;114.67;;
14066;SDS011;7108;42.684;23.350;2023-06-14T00:26:29;263.60;;;117.47;;
14066;SDS011;7108;42.684;23.350;2023-06-14T00:28:55;265.17;;;122.57;;
14066;SDS011;7108;42.684;23.350;2023-06-14T00:31:21;251.33;;;114.20;;
14066;SDS011;7108;42.684;23.350;2023-06-14T00:33:47;254.33;;;109.53;;
14066;SDS011;7108;42.684;23.350;2023-06-14T00:36:13;262.90;;;113.70;;
14066;SDS011;7108;42.684;23.350;2023-06-14T00:38:38;266.17;;;114.53;;
14066;SDS011;7108;42.684;23.350;2023-06-14T00:41:04;260.00;;;116.80;;
14066;SDS011;7108;42.684;23.350;2023-06-14T00:43:29;262.00;;;116.87;;
14066;SDS011;7108;42.684;23.350;2023-06-14T00:45:55;261.87;;;113.93;;
14066;SDS011;7108;42.684;23.350;2023-06-14T00:48:20;257.77;;;115.63;;
14066;SDS011;7108;42.684;23.350;2023-06-14T00:50:46;277.30;;;113.77;;
14066;SDS011;7108;42.684;23.350;2023-06-14T00:53:17;259.73;;;119.03;;
14066;SDS011;7108;42.684;23.350;2023-06-14T00:55:42;274.60;;;123.00;;
14066;SDS011;7108;42.684;23.350;2023-06-14T00:58:08;280.43;;;116.60;;
14066;SDS011;7108;42.684;23.350;2023-06-14T01:00:35;263.93;;;113.73;;
14066;SDS011;7108;42.684;23.350;2023-06-14T01:03:01;257.70;;;114.77;;
14066;SDS011;7108;42.684;23.350;2023-06-14T01:05:27;275.53;;;127.63;;
14066;SDS011;7108;42.684;23.350;2023-06-14T01:15:40;270.63;;;124.67;;
14066;SDS011;7108;42.684;23.350;2023-06-14T01:18:08;282.27;;;117.63;;
14066;SDS011;7108;42.684;23.350;2023-06-14T01:20:42;261.00;;;110.93;;
14066;SDS011;7108;42.684;23.350;2023-06-14T01:23:10;274.20;;;114.10;;
14066;SDS011;7108;42.684;23.350;2023-06-14T01:25:39;256.83;;;113.93;;
14066;SDS011;7108;42.684;23.350;2023-06-14T01:28:06;263.47;;;114.53;;
14066;SDS011;7108;42.684;23.350;2023-06-14T01:30:40;277.17;;;116.47;;
14066;SDS011;7108;42.684;23.350;2023-06-14T01:33:13;273.73;;;120.67;;
14066;SDS011;7108;42.684;23.350;2023-06-14T01:35:43;268.17;;;117.03;;
14066;SDS011;7108;42.684;23.350;2023-06-14T01:38:10;277.33;;;125.77;;
14066;SDS011;7108;42.684;23.350;2023-06-14T01:40:37;279.37;;;124.30;;
14066;SDS011;7108;42.684;23.350;2023-06-14T01:43:04;254.60;;;117.90;;
14066;SDS011;7108;42.684;23.350;2023-06-14T01:45:31;262.73;;;125.33;;
14066;SDS011;7108;42.684;23.350;2023-06-14T01:47:57;271.73;;;129.23;;
14066;SDS011;7108;42.684;23.350;2023-06-14T01:50:22;267.07;;;146.70;;
14066;SDS011;7108;42.684;23.350;2023-06-14T01:52:48;264.93;;;127.37;;
14066;SDS011;7108;42.684;23.350;2023-06-14T01:55:13;268.57;;;122.77;;
14066;SDS011;7108;42.684;23.350;2023-06-14T01:57:39;266.43;;;122.20;;
14066;SDS011;7108;42.684;23.350;2023-06-14T02:00:05;261.83;;;123.53;;
14066;SDS011;7108;42.684;23.350;2023-06-14T02:02:37;274.97;;;141.43;;
14066;SDS011;7108;42.684;23.350;2023-06-14T02:05:03;262.57;;;119.37;;
14066;SDS011;7108;42.684;23.350;2023-06-14T02:07:29;253.03;;;110.67;;
14066;SDS011;7108;42.684;23.350;2023-06-14T02:09:54;253.07;;;111.47;;
14066;SDS011;7108;42.684;23.350;2023-06-14T02:12:20;260.07;;;115.80;;
14066;SDS011;7108;42.684;23.350;2023-06-14T02:14:45;270.57;;;142.33;;
14066;SDS011;7108;42.684;23.350;2023-06-14T02:17:10;261.07;;;131.93;;
14066;SDS011;7108;42.684;23.350;2023-06-14T02:19:36;260.70;;;114.20;;
14066;SDS011;7108;42.684;23.350;2023-06-14T02:22:02;257.33;;;115.77;;
14066;SDS011;7108;42.684;23.350;2023-06-14T02:24:27;250.80;;;114.97;;
14066;SDS011;7108;42.684;23.350;2023-06-14T02:26:53;256.13;;;117.87;;
14066;SDS011;7108;42.684;23.350;2023-06-14T02:29:18;271.47;;;115.43;;
14066;SDS011;7108;42.684;23.350;2023-06-14T02:31:43;266.90;;;114.03;;
14066;SDS011;7108;42.684;23.350;2023-06-14T02:34:11;253.20;;;115.00;;
14066;SDS011;7108;42.684;23.350;2023-06-14T02:36:37;269.67;;;115.33;;
14066;SDS011;7108;42.684;23.350;2023-06-14T02:39:07;272.47;;;121.57;;
14066;SDS011;7108;42.684;23.350;2023-06-14T02:41:34;258.77;;;114.33;;
14066;SDS011;7108;42.684;23.350;2023-06-14T02:44:00;251.07;;;109.17;;
14066;SDS011;7108;42.684;23.350;2023-06-14T02:46:25;270.40;;;119.10;;
14066;SDS011;7108;42.684;23.350;2023-06-14T02:48:51;251.73;;;115.60;;
14066;SDS011;7108;42.684;23.350;2023-06-14T02:51:16;280.33;;;120.33;;
14066;SDS011;7108;42.684;23.350;2023-06-14T02:53:41;273.13;;;117.20;;
14066;SDS011;7108;42.684;23.350;2023-06-14T02:56:07;269.97;;;115.43;;
14066;SDS011;7108;42.684;23.350;2023-06-14T02:58:32;262.17;;;114.67;;
14066;SDS011;7108;42.684;23.350;2023-06-14T03:00:58;258.23;;;112.53;;
14066;SDS011;7108;42.684;23.350;2023-06-14T03:03:27;262.53;;;112.97;;
14066;SDS011;7108;42.684;23.350;2023-06-14T03:05:53;263.10;;;112.93;;
14066;SDS011;7108;42.684;23.350;2023-06-14T03:08:19;275.77;;;110.33;;
14066;SDS011;7108;42.684;23.350;2023-06-14T03:10:45;262.40;;;111.13;;
14066;SDS011;7108;42.684;23.350;2023-06-14T03:13:15;260.37;;;109.93;;
14066;SDS011;7108;42.684;23.350;2023-06-14T03:15:41;258.30;;;106.83;;
14066;SDS011;7108;42.684;23.350;2023-06-14T03:18:08;273.50;;;113.13;;
14066;SDS011;7108;42.684;23.350;2023-06-14T03:20:40;275.47;;;112.07;;
14066;SDS011;7108;42.684;23.350;2023-06-14T03:23:07;266.70;;;113.93;;
14066;SDS011;7108;42.684;23.350;2023-06-14T03:25:33;264.23;;;118.07;;
14066;SDS011;7108;42.684;23.350;2023-06-14T03:28:01;253.70;;;113.07;;
14066;SDS011;7108;42.684;23.350;2023-06-14T03:30:29;259.77;;;115.27;;
14066;SDS011;7108;42.684;23.350;2023-06-14T03:32:56;261.47;;;114.43;;
14066;SDS011;7108;42.684;23.350;2023-06-14T03:35:21;247.67;;;109.20;;
14066;SDS011;7108;42.684;23.350;2023-06-14T03:37:47;260.63;;;112.50;;
14066;SDS011;7108;42.684;23.350;2023-06-14T03:40:14;277.17;;;113.87;;
14066;SDS011;7108;42.684;23.350;2023-06-14T03:42:41;277.33;;;116.57;;
14066;SDS011;7108;42.684;23.350;2023-06-14T03:45:06;275.33;;;113.77;;
14066;SDS011;7108;42.684;23.350;2023-06-14T03:47:32;274.23;;;109.67;;
14066;SDS011;7108;42.684;23.350;2023-06-14T03:49:58;264.53;;;112.17;;
14066;SDS011;7108;42.684;23.350;2023-06-14T03:52:25;267.17;;;116.07;;
14066;SDS011;7108;42.684;23.350;2023-06-14T03:54:51;256.33;;;113.10;;
14066;SDS011;7108;42.684;23.350;2023-06-14T03:57:16;271.23;;;117.80;;
14066;SDS011;7108;42.684;23.350;2023-06-14T03:59:42;263.57;;;115.43;;
14066;SDS011;7108;42.684;23.350;2023-06-14T04:02:09;250.33;;;108.97;;
14066;SDS011;7108;42.684;23.350;2023-06-14T04:04:35;279.77;;;117.40;;
14066;SDS011;7108;42.684;23.350;2023-06-14T04:07:01;271.50;;;116.27;;
14066;SDS011;7108;42.684;23.350;2023-06-14T04:09:28;264.30;;;112.90;;
14066;SDS011;7108;42.684;23.350;2023-06-14T04:11:55;247.57;;;110.27;;
14066;SDS011;7108;42.684;23.350;2023-06-14T04:14:21;247.20;;;110.83;;
14066;SDS011;7108;42.684;23.350;2023-06-14T04:16:47;255.63;;;110.73;;
14066;SDS011;7108;42.684;23.350;2023-06-14T04:19:13;260.20;;;115.33;;
14066;SDS011;7108;42.684;23.350;2023-06-14T04:21:38;273.53;;;111.80;;
14066;SDS011;7108;42.684;23.350;2023-06-14T04:24:04;258.97;;;113.87;;
14066;SDS011;7108;42.684;23.350;2023-06-14T04:26:30;250.50;;;110.23;;
14066;SDS011;7108;42.684;23.350;2023-06-14T04:28:58;251.13;;;112.60;;
14066;SDS011;7108;42.684;23.350;2023-06-14T04:31:27;253.70;;;110.77;;
14066;SDS011;7108;42.684;23.350;2023-06-14T04:33:54;243.97;;;113.53;;
14066;SDS011;7108;42.684;23.350;2023-06-14T04:36:20;255.37;;;112.90;;
14066;SDS011;7108;42.684;23.350;2023-06-14T04:38:46;237.60;;;107.17;;
14066;SDS011;7108;42.684;23.350;2023-06-14T04:41:12;250.27;;;114.43;;
14066;SDS011;7108;42.684;23.350;2023-06-14T04:43:37;268.80;;;113.30;;
14066;SDS011;7108;42.684;23.350;2023-06-14T04:46:06;258.90;;;115.30;;
14066;SDS011;7108;42.684;23.350;2023-06-14T04:48:42;272.50;;;118.33;;
14066;SDS011;7108;42.684;23.350;2023-06-14T04:51:10;266.27;;;112.43;;
14066;SDS011;7108;42.684;23.350;2023-06-14T04:53:36;267.10;;;112.43;;
14066;SDS011;7108;42.684;23.350;2023-06-14T04:56:02;247.23;;;115.60;;
14066;SDS011;7108;42.684;23.350;2023-06-14T04:58:28;262.53;;;118.53;;
14066;SDS011;7108;42.684;23.350;2023-06-14T05:00:54;243.23;;;109.40;;
14066;SDS011;7108;42.684;23.350;2023-06-14T05:03:21;254.17;;;115.87;;
14066;SDS011;7108;42.684;23.350;2023-06-14T05:05:49;284.40;;;122.33;;
14066;SDS011;7108;42.684;23.350;2023-06-14T05:08:15;259.40;;;119.87;;
14066;SDS011;7108;42.684;23.350;2023-06-14T05:10:41;266.13;;;118.00;;
14066;SDS011;7108;42.684;23.350;2023-06-14T05:13:06;282.47;;;114.07;;
14066;SDS011;7108;42.684;23.350;2023-06-14T05:15:32;306.50;;;122.93;;
14066;SDS011;7108;42.684;23.350;2023-06-14T05:17:57;300.67;;;121.43;;
14066;SDS011;7108;42.684;23.350;2023-06-14T05:20:23;308.23;;;126.23;;
14066;SDS011;7108;42.684;23.350;2023-06-14T05:22:52;288.20;;;118.77;;
14066;SDS011;7108;42.684;23.350;2023-06-14T05:25:19;316.33;;;125.47;;
14066;SDS011;7108;42.684;23.350;2023-06-14T05:27:45;317.43;;;122.83;;
14066;SDS011;7108;42.684;23.350;2023-06-14T05:30:11;306.17;;;119.27;;
14066;SDS011;7108;42.684;23.350;2023-06-14T05:32:37;321.40;;;121.60;;
14066;SDS011;7108;42.684;23.350;2023-06-14T05:35:03;319.23;;;127.40;;
14066;SDS011;7108;42.684;23.350;2023-06-14T05:37:29;322.10;;;126.83;;
14066;SDS011;7108;42.684;23.350;2023-06-14T05:39:55;344.90;;;132.53;;
14066;SDS011;7108;42.684;23.350;2023-06-14T05:42:21;306.93;;;124.33;;
14066;SDS011;7108;42.684;23.350;2023-06-14T05:44:46;312.60;;;123.23;;
14066;SDS011;7108;42.684;23.350;2023-06-14T05:47:12;301.87;;;120.63;;
14066;SDS011;7108;42.684;23.350;2023-06-14T05:49:37;303.13;;;123.97;;
14066;SDS011;7108;42.684;23.350;2023-06-14T05:52:03;324.50;;;124.00;;
14066;SDS011;7108;42.684;23.350;2023-06-14T05:54:28;283.77;;;121.90;;
14066;SDS011;7108;42.684;23.350;2023-06-14T05:56:54;289.63;;;118.73;;
14066;SDS011;7108;42.684;23.350;2023-06-14T05:59:19;315.63;;;120.43;;
14066;SDS011;7108;42.684;23.350;2023-06-14T06:01:45;309.87;;;123.03;;
14066;SDS011;7108;42.684;23.350;2023-06-14T06:04:11;297.93;;;123.63;;
14066;SDS011;7108;42.684;23.350;2023-06-14T06:06:37;317.40;;;124.63;;
14066;SDS011;7108;42.684;23.350;2023-06-14T06:09:02;316.93;;;120.33;;
14066;SDS011;7108;42.684;23.350;2023-06-14T06:11:27;309.07;;;118.27;;
14066;SDS011;7108;42.684;23.350;2023-06-14T06:13:53;298.07;;;118.27;;
14066;SDS011;7108;42.684;23.350;2023-06-14T06:16:18;320.50;;;123.50;;
14066;SDS011;7108;42.684;23.350;2023-06-14T06:18:44;315.77;;;123.77;;
14066;SDS011;7108;42.684;23.350;2023-06-14T06:21:09;295.23;;;119.33;;
14066;SDS011;7108;42.684;23.350;2023-06-14T06:23:35;326.80;;;124.30;;
14066;SDS011;7108;42.684;23.350;2023-06-14T06:26:00;281.50;;;116.90;;
14066;SDS011;7108;42.684;23.350;2023-06-14T06:28:26;257.43;;;110.50;;
14066;SDS011;7108;42.684;23.350;2023-06-14T06:30:51;257.53;;;114.43;;
14066;SDS011;7108;42.684;23.350;2023-06-14T06:33:18;270.67;;;116.67;;
14066;SDS011;7108;42.684;23.350;2023-06-14T06:35:44;272.07;;;116.53;;
14066;SDS011;7108;42.684;23.350;2023-06-14T06:38:09;282.10;;;117.33;;
14066;SDS011;7108;42.684;23.350;2023-06-14T06:40:35;270.57;;;111.70;;
14066;SDS011;7108;42.684;23.350;2023-06-14T06:43:01;257.23;;;115.83;;
14066;SDS011;7108;42.684;23.350;2023-06-14T06:45:28;256.67;;;112.53;;
14066;SDS011;7108;42.684;23.350;2023-06-14T06:47:53;262.73;;;112.57;;
14066;SDS011;7108;42.684;23.350;2023-06-14T06:50:19;260.53;;;109.17;;
14066;SDS011;7108;42.684;23.350;2023-06-14T06:52:50;265.83;;;112.83;;
14066;SDS011;7108;42.684;23.350;2023-06-14T06:55:16;264.57;;;116.13;;
14066;SDS011;7108;42.684;23.350;2023-06-14T06:57:43;262.87;;;117.53;;
14066;SDS011;7108;42.684;23.350;2023-06-14T07:00:09;260.77;;;114.27;;
14066;SDS011;7108;42.684;23.350;2023-06-14T07:02:35;271.60;;;113.80;;
14066;SDS011;7108;42.684;23.350;2023-06-14T07:05:01;259.80;;;113.93;;
14066;SDS011;7108;42.684;23.350;2023-06-14T07:07:26;263.30;;;111.57;;
14066;SDS011;7108;42.684;23.350;2023-06-14T07:09:52;264.10;;;117.53;;
14066;SDS011;7108;42.684;23.350;2023-06-14T07:12:17;267.63;;;107.90;;
14066;SDS011;7108;42.684;23.350;2023-06-14T07:14:43;260.43;;;112.97;;
14066;SDS011;7108;42.684;23.350;2023-06-14T07:17:08;285.00;;;114.53;;
14066;SDS011;7108;42.684;23.350;2023-06-14T07:19:34;270.30;;;112.30;;
14066;SDS011;7108;42.684;23.350;2023-06-14T07:22:00;260.80;;;112.97;;
14066;SDS011;7108;42.684;23.350;2023-06-14T07:24:25;260.80;;;118.30;;
14066;SDS011;7108;42.684;23.350;2023-06-14T07:26:53;260.23;;;116.40;;
14066;SDS011;7108;42.684;23.350;2023-06-14T07:29:18;278.47;;;118.23;;
14066;SDS011;7108;42.684;23.350;2023-06-14T07:31:44;280.47;;;119.43;;
14066;SDS011;7108;42.684;23.350;2023-06-14T07:34:10;278.33;;;117.60;;
14066;SDS011;7108;42.684;23.350;2023-06-14T07:36:35;275.43;;;121.40;;
14066;SDS011;7108;42.684;23.350;2023-06-14T07:39:01;285.70;;;120.43;;
14066;SDS011;7108;42.684;23.350;2023-06-14T07:41:28;263.87;;;111.93;;
14066;SDS011;7108;42.684;23.350;2023-06-14T07:43:54;276.10;;;118.17;;
14066;SDS011;7108;42.684;23.350;2023-06-14T07:46:20;274.73;;;115.33;;
14066;SDS011;7108;42.684;23.350;2023-06-14T07:48:45;277.00;;;116.07;;
14066;SDS011;7108;42.684;23.350;2023-06-14T07:51:11;271.17;;;113.97;;
14066;SDS011;7108;42.684;23.350;2023-06-14T07:53:36;277.97;;;114.57;;
14066;SDS011;7108;42.684;23.350;2023-06-14T07:56:02;261.90;;;116.43;;
14066;SDS011;7108;42.684;23.350;2023-06-14T07:58:27;259.93;;;112.23;;
14066;SDS011;7108;42.684;23.350;2023-06-14T08:00:53;260.23;;;115.80;;
14066;SDS011;7108;42.684;23.350;2023-06-14T08:03:19;251.20;;;113.37;;
14066;SDS011;7108;42.684;23.350;2023-06-14T08:05:44;269.87;;;116.73;;
14066;SDS011;7108;42.684;23.350;2023-06-14T08:08:10;274.17;;;117.37;;
14066;SDS011;7108;42.684;23.350;2023-06-14T08:10:35;277.80;;;118.93;;
14066;SDS011;7108;42.684;23.350;2023-06-14T08:13:01;262.50;;;112.43;;
14066;SDS011;7108;42.684;23.350;2023-06-14T08:15:26;261.97;;;115.47;;
14066;SDS011;7108;42.684;23.350;2023-06-14T08:17:52;254.47;;;109.43;;
14066;SDS011;7108;42.684;23.350;2023-06-14T08:20:17;283.37;;;115.20;;
14066;SDS011;7108;42.684;23.350;2023-06-14T08:22:43;257.13;;;117.30;;
14066;SDS011;7108;42.684;23.350;2023-06-14T08:25:08;279.47;;;116.10;;
14066;SDS011;7108;42.684;23.350;2023-06-14T08:27:35;272.80;;;119.03;;
14066;SDS011;7108;42.684;23.350;2023-06-14T08:30:00;264.73;;;119.67;;
14066;SDS011;7108;42.684;23.350;2023-06-14T08:32:27;267.07;;;116.37;;
14066;SDS011;7108;42.684;23.350;2023-06-14T08:34:52;256.73;;;115.97;;
14066;SDS011;7108;42.684;23.350;2023-06-14T08:37:18;268.87;;;118.07;;
14066;SDS011;7108;42.684;23.350;2023-06-14T08:39:43;255.17;;;117.13;;
14066;SDS011;7108;42.684;23.350;2023-06-14T08:42:09;276.53;;;120.10;;
14066;SDS011;7108;42.684;23.350;2023-06-14T08:44:35;281.43;;;116.60;;
14066;SDS011;7108;42.684;23.350;2023-06-14T08:47:01;258.27;;;116.47;;
14066;SDS011;7108;42.684;23.350;2023-06-14T08:49:28;248.13;;;116.23;;
14066;SDS011;7108;42.684;23.350;2023-06-14T08:51:59;264.23;;;114.70;;
14066;SDS011;7108;42.684;23.350;2023-06-14T08:54:45;271.63;;;112.63;;
14066;SDS011;7108;42.684;23.350;2023-06-14T08:57:13;270.03;;;111.80;;
14066;SDS011;7108;42.684;23.350;2023-06-14T08:59:40;265.53;;;109.77;;
14066;SDS011;7108;42.684;23.350;2023-06-14T09:02:17;268.93;;;116.50;;
14066;SDS011;7108;42.684;23.350;2023-06-14T09:04:44;267.70;;;110.10;;
14066;SDS011;7108;42.684;23.350;2023-06-14T09:07:10;272.10;;;112.90;;
14066;SDS011;7108;42.684;23.350;2023-06-14T09:09:41;281.60;;;116.67;;
14066;SDS011;7108;42.684;23.350;2023-06-14T09:12:10;271.40;;;111.33;;
14066;SDS011;7108;42.684;23.350;2023-06-14T09:14:37;282.43;;;114.77;;
14066;SDS011;7108;42.684;23.350;2023-06-14T09:17:05;272.63;;;111.20;;
14066;SDS011;7108;42.684;23.350;2023-06-14T09:19:30;270.90;;;115.00;;
14066;SDS011;7108;42.684;23.350;2023-06-14T09:21:56;259.80;;;112.57;;
14066;SDS011;7108;42.684;23.350;2023-06-14T09:24:23;261.57;;;111.87;;
14066;SDS011;7108;42.684;23.350;2023-06-14T09:26:50;279.83;;;116.80;;
14066;SDS011;7108;42.684;23.350;2023-06-14T09:29:16;265.93;;;112.57;;
14066;SDS011;7108;42.684;23.350;2023-06-14T09:31:43;261.90;;;114.47;;
14066;SDS011;7108;42.684;23.350;2023-06-14T09:34:10;268.93;;;114.07;;
14066;SDS011;7108;42.684;23.350;2023-06-14T09:36:36;268.87;;;114.43;;
14066;SDS011;7108;42.684;23.350;2023-06-14T09:39:05;274.27;;;116.87;;
14066;SDS011;7108;42.684;23.350;2023-06-14T09:44:00;270.27;;;117.77;;
14066;SDS011;7108;42.684;23.350;2023-06-14T09:46:27;267.83;;;116.00;;
14066;SDS011;7108;42.684;23.350;2023-06-14T09:48:54;258.50;;;114.93;;
14066;SDS011;7108;42.684;23.350;2023-06-14T09:51:21;278.33;;;114.90;;
14066;SDS011;7108;42.684;23.350;2023-06-14T09:53:48;274.30;;;119.57;;
14066;SDS011;7108;42.684;23.350;2023-06-14T09:56:16;274.23;;;119.37;;
14066;SDS011;7108;42.684;23.350;2023-06-14T09:58:55;280.73;;;122.17;;
14066;SDS011;7108;42.684;23.350;2023-06-14T10:01:26;288.77;;;119.90;;
14066;SDS011;7108;42.684;23.350;2023-06-14T10:03:55;270.07;;;119.90;;
14066;SDS011;7108;42.684;23.350;2023-06-14T10:06:27;267.63;;;117.17;;
14066;SDS011;7108;42.684;23.350;2023-06-14T10:08:56;271.43;;;116.97;;
14066;SDS011;7108;42.684;23.350;2023-06-14T10:11:25;259.60;;;112.80;;
14066;SDS011;7108;42.684;23.350;2023-06-14T10:13:51;260.50;;;116.40;;
14066;SDS011;7108;42.684;23.350;2023-06-14T10:16:23;281.13;;;115.37;;
14066;SDS011;7108;42.684;23.350;2023-06-14T10:21:37;291.07;;;119.77;;
14066;SDS011;7108;42.684;23.350;2023-06-14T10:24:12;268.60;;;119.97;;
14066;SDS011;7108;42.684;23.350;2023-06-14T10:26:50;301.23;;;130.00;;
14066;SDS011;7108;42.684;23.350;2023-06-14T10:29:17;267.27;;;124.43;;
14066;SDS011;7108;42.684;23.350;2023-06-14T10:31:43;267.60;;;130.47;;
14066;SDS011;7108;42.684;23.350;2023-06-14T10:34:10;280.80;;;123.13;;
14066;SDS011;7108;42.684;23.350;2023-06-14T10:36:37;287.63;;;129.37;;
14066;SDS011;7108;42.684;23.350;2023-06-14T10:41:39;303.70;;;125.77;;
14066;SDS011;7108;42.684;23.350;2023-06-14T10:46:37;279.87;;;119.77;;
14066;SDS011;7108;42.684;23.350;2023-06-14T10:49:02;286.47;;;122.27;;
14066;SDS011;7108;42.684;23.350;2023-06-14T10:51:52;323.20;;;127.17;;
14066;SDS011;7108;42.684;23.350;2023-06-14T10:54:21;329.50;;;127.23;;
14066;SDS011;7108;42.684;23.350;2023-06-14T10:59:13;332.07;;;127.37;;
14066;SDS011;7108;42.684;23.350;2023-06-14T11:05:03;308.20;;;124.50;;
14066;SDS011;7108;42.684;23.350;2023-06-14T11:12:56;338.87;;;130.13;;
14066;SDS011;7108;42.684;23.350;2023-06-14T11:15:27;324.33;;;127.53;;
14066;SDS011;7108;42.684;23.350;2023-06-14T11:17:56;318.17;;;129.30;;
14066;SDS011;7108;42.684;23.350;2023-06-14T11:20:27;304.03;;;131.07;;
14066;SDS011;7108;42.684;23.350;2023-06-14T11:22:54;339.00;;;138.53;;
14066;SDS011;7108;42.684;23.350;2023-06-14T11:25:20;323.97;;;133.77;;
14066;SDS011;7108;42.684;23.350;2023-06-14T11:27:46;339.27;;;142.43;;
14066;SDS011;7108;42.684;23.350;2023-06-14T11:30:14;299.90;;;127.87;;
14066;SDS011;7108;42.684;23.350;2023-06-14T11:32:40;319.20;;;133.67;;
14066;SDS011;7108;42.684;23.350;2023-06-14T11:35:06;335.67;;;134.90;;
14066;SDS011;7108;42.684;23.350;2023-06-14T11:37:32;302.20;;;131.60;;
14066;SDS011;7108;42.684;23.350;2023-06-14T11:40:02;323.83;;;134.93;;
14066;SDS011;7108;42.684;23.350;2023-06-14T11:42:34;321.63;;;131.47;;
14066;SDS011;7108;42.684;23.350;2023-06-14T11:45:01;314.30;;;132.73;;
14066;SDS011;7108;42.684;23.350;2023-06-14T11:47:40;296.90;;;127.23;;
14066;SDS011;7108;42.684;23.350;2023-06-14T11:50:06;324.90;;;137.60;;
14066;SDS011;7108;42.684;23.350;2023-06-14T11:52:38;296.37;;;129.47;;
14066;SDS011;7108;42.684;23.350;2023-06-14T11:55:06;324.03;;;141.60;;
14066;SDS011;7108;42.684;23.350;2023-06-14T11:57:35;311.97;;;131.77;;
14066;SDS011;7108;42.684;23.350;2023-06-14T12:00:04;344.17;;;140.07;;
14066;SDS011;7108;42.684;23.350;2023-06-14T12:02:37;300.00;;;131.53;;
14066;SDS011;7108;42.684;23.350;2023-06-14T12:05:06;333.57;;;134.77;;
14066;SDS011;7108;42.684;23.350;2023-06-14T12:07:38;285.80;;;128.23;;
14066;SDS011;7108;42.684;23.350;2023-06-14T12:10:06;284.17;;;130.80;;
14066;SDS011;7108;42.684;23.350;2023-06-14T12:12:39;278.53;;;127.37;;
14066;SDS011;7108;42.684;23.350;2023-06-14T12:15:07;289.47;;;132.70;;
14066;SDS011;7108;42.684;23.350;2023-06-14T12:17:34;274.03;;;126.20;;
14066;SDS011;7108;42.684;23.350;2023-06-14T12:20:10;266.23;;;125.53;;
14066;SDS011;7108;42.684;23.350;2023-06-14T12:22:57;281.10;;;129.27;;
14066;SDS011;7108;42.684;23.350;2023-06-14T12:25:32;271.93;;;131.17;;
14066;SDS011;7108;42.684;23.350;2023-06-14T12:28:04;277.63;;;126.43;;
14066;SDS011;7108;42.684;23.350;2023-06-14T12:30:31;279.17;;;129.30;;
14066;SDS011;7108;42.684;23.350;2023-06-14T12:32:57;267.80;;;126.47;;
14066;SDS011;7108;42.684;23.350;2023-06-14T12:35:22;271.70;;;123.90;;
14066;SDS011;7108;42.684;23.350;2023-06-14T12:37:48;274.70;;;130.60;;
14066;SDS011;7108;42.684;23.350;2023-06-14T12:40:13;290.87;;;125.27;;
14066;SDS011;7108;42.684;23.350;2023-06-14T12:42:39;275.00;;;123.63;;
14066;SDS011;7108;42.684;23.350;2023-06-14T12:45:05;281.70;;;127.27;;
14066;SDS011;7108;42.684;23.350;2023-06-14T12:47:31;264.90;;;119.23;;
14066;SDS011;7108;42.684;23.350;2023-06-14T12:49:56;269.13;;;119.40;;
14066;SDS011;7108;42.684;23.350;2023-06-14T12:52:22;256.63;;;121.27;;
14066;SDS011;7108;42.684;23.350;2023-06-14T12:54:47;284.67;;;127.23;;
14066;SDS011;7108;42.684;23.350;2023-06-14T12:57:13;277.30;;;120.27;;
14066;SDS011;7108;42.684;23.350;2023-06-14T12:59:38;279.80;;;125.30;;
14066;SDS011;7108;42.684;23.350;2023-06-14T13:02:13;277.43;;;125.23;;
14066;SDS011;7108;42.684;23.350;2023-06-14T13:04:40;290.93;;;129.53;;
14066;SDS011;7108;42.684;23.350;2023-06-14T13:07:06;293.77;;;126.47;;
14066;SDS011;7108;42.684;23.350;2023-06-14T13:09:34;278.40;;;128.70;;
14066;SDS011;7108;42.684;23.350;2023-06-14T13:12:00;276.83;;;125.10;;
14066;SDS011;7108;42.684;23.350;2023-06-14T13:14:25;269.63;;;121.13;;
14066;SDS011;7108;42.684;23.350;2023-06-14T13:16:51;272.13;;;123.20;;
14066;SDS011;7108;42.684;23.350;2023-06-14T13:19:16;278.13;;;122.67;;
14066;SDS011;7108;42.684;23.350;2023-06-14T13:21:42;276.67;;;119.80;;
14066;SDS011;7108;42.684;23.350;2023-06-14T13:24:07;288.40;;;124.63;;
14066;SDS011;7108;42.684;23.350;2023-06-14T13:26:33;272.43;;;116.13;;
14066;SDS011;7108;42.684;23.350;2023-06-14T13:28:59;271.67;;;118.83;;
14066;SDS011;7108;42.684;23.350;2023-06-14T13:31:24;273.47;;;118.07;;
14066;SDS011;7108;42.684;23.350;2023-06-14T13:33:50;276.27;;;123.83;;
14066;SDS011;7108;42.684;23.350;2023-06-14T13:36:15;256.07;;;116.43;;
14066;SDS011;7108;42.684;23.350;2023-06-14T13:38:41;289.17;;;120.17;;
14066;SDS011;7108;42.684;23.350;2023-06-14T13:41:06;275.60;;;118.80;;
14066;SDS011;7108;42.684;23.350;2023-06-14T13:43:32;273.53;;;120.10;;
14066;SDS011;7108;42.684;23.350;2023-06-14T13:45:57;260.77;;;123.90;;
14066;SDS011;7108;42.684;23.350;2023-06-14T13:48:22;252.13;;;118.93;;
14066;SDS011;7108;42.684;23.350;2023-06-14T13:50:48;270.30;;;120.50;;
14066;SDS011;7108;42.684;23.350;2023-06-14T13:53:14;289.47;;;124.53;;
14066;SDS011;7108;42.684;23.350;2023-06-14T13:55:40;273.17;;;128.60;;
14066;SDS011;7108;42.684;23.350;2023-06-14T13:58:05;272.10;;;125.90;;
14066;SDS011;7108;42.684;23.350;2023-06-14T14:00:30;259.10;;;122.87;;
14066;SDS011;7108;42.684;23.350;2023-06-14T14:02:56;283.10;;;126.03;;
14066;SDS011;7108;42.684;23.350;2023-06-14T14:05:22;268.40;;;123.20;;
14066;SDS011;7108;42.684;23.350;2023-06-14T14:07:53;266.40;;;122.10;;
14066;SDS011;7108;42.684;23.350;2023-06-14T14:10:19;263.27;;;124.20;;
14066;SDS011;7108;42.684;23.350;2023-06-14T14:12:45;244.73;;;116.63;;
14066;SDS011;7108;42.684;23.350;2023-06-14T14:15:11;257.87;;;118.70;;
14066;SDS011;7108;42.684;23.350;2023-06-14T14:17:40;273.20;;;118.77;;
14066;SDS011;7108;42.684;23.350;2023-06-14T14:20:06;271.47;;;115.47;;
14066;SDS011;7108;42.684;23.350;2023-06-14T14:22:32;259.83;;;117.97;;
14066;SDS011;7108;42.684;23.350;2023-06-14T14:24:58;258.73;;;115.47;;